sensor_id;sensor_type;location;lat;lon;timestamp;pressure;altitude;pressure_sealevel;temperature;humidity
50444;BME280;36370;52.216;21.142;2022-12-07T00:03:45;99846.97;;;1.22;100.00
50444;BME280;36370;52.216;21.142;2022-12-07T00:07:48;99844.28;;;1.25;100.00
50444;BME280;36370;52.216;21.142;2022-12-07T00:11:51;99839.78;;;1.30;100.00
50444;BME280;36370;52.216;21.142;2022-12-07T00:15:53;99835.97;;;1.42;100.00
50444;BME280;36370;52.216;21.142;2022-12-07T00:19:55;99827.31;;;1.43;100.00
50444;BME280;36370;52.216;21.142;2022-12-07T00:23:58;99822.28;;;1.38;100.00
50444;BME280;36370;52.216;21.142;2022-12-07T00:28:00;99818.78;;;1.39;100.00
50444;BME280;36370;52.216;21.142;2022-12-07T00:32:03;99828.63;;;1.55;100.00
50444;BME280;36370;52.216;21.142;2022-12-07T00:36:08;99816.38;;;1.60;100.00
50444;BME280;36370;52.216;21.142;2022-12-07T00:40:10;99812.66;;;1.69;100.00
50444;BME280;36370;52.216;21.142;2022-12-07T00:44:12;99809.16;;;1.70;100.00
50444;BME280;36370;52.216;21.142;2022-12-07T00:48:14;99807.00;;;1.83;100.00
50444;BME280;36370;52.216;21.142;2022-12-07T00:52:16;99802.81;;;1.78;100.00
50444;BME280;36370;52.216;21.142;2022-12-07T00:56:26;99795.03;;;1.78;100.00
50444;BME280;36370;52.216;21.142;2022-12-07T01:00:29;99804.81;;;1.70;100.00
50444;BME280;36370;52.216;21.142;2022-12-07T01:04:33;99803.66;;;1.79;100.00
50444;BME280;36370;52.216;21.142;2022-12-07T01:08:35;99802.28;;;1.69;100.00
50444;BME280;36370;52.216;21.142;2022-12-07T01:12:37;99801.81;;;1.57;100.00
50444;BME280;36370;52.216;21.142;2022-12-07T01:16:39;99802.59;;;1.59;100.00
50444;BME280;36370;52.216;21.142;2022-12-07T01:20:41;99804.28;;;1.60;100.00
50444;BME280;36370;52.216;21.142;2022-12-07T01:24:44;99794.94;;;1.56;100.00
50444;BME280;36370;52.216;21.142;2022-12-07T01:28:46;99801.66;;;1.62;100.00
50444;BME280;36370;52.216;21.142;2022-12-07T01:32:48;99807.19;;;1.51;100.00
50444;BME280;36370;52.216;21.142;2022-12-07T01:36:50;99810.50;;;1.55;100.00
50444;BME280;36370;52.216;21.142;2022-12-07T01:40:56;99812.75;;;1.66;100.00
50444;BME280;36370;52.216;21.142;2022-12-07T01:45:36;99811.75;;;1.70;100.00
50444;BME280;36370;52.216;21.142;2022-12-07T01:49:44;99804.03;;;1.68;100.00
50444;BME280;36370;52.216;21.142;2022-12-07T01:53:47;99798.75;;;1.71;100.00
50444;BME280;36370;52.216;21.142;2022-12-07T01:57:52;99807.03;;;1.81;100.00
50444;BME280;36370;52.216;21.142;2022-12-07T02:01:55;99802.53;;;1.86;100.00
50444;BME280;36370;52.216;21.142;2022-12-07T02:05:58;99799.00;;;1.89;100.00
50444;BME280;36370;52.216;21.142;2022-12-07T02:10:16;99798.78;;;1.95;100.00
50444;BME280;36370;52.216;21.142;2022-12-07T02:14:19;99796.81;;;2.02;100.00
50444;BME280;36370;52.216;21.142;2022-12-07T02:18:47;99792.84;;;1.93;100.00
50444;BME280;36370;52.216;21.142;2022-12-07T02:23:04;99786.88;;;2.14;100.00
50444;BME280;36370;52.216;21.142;2022-12-07T02:31:32;99781.38;;;2.24;100.00
50444;BME280;36370;52.216;21.142;2022-12-07T02:35:41;99778.41;;;2.33;100.00
50444;BME280;36370;52.216;21.142;2022-12-07T02:40:10;99772.16;;;2.39;100.00
50444;BME280;36370;52.216;21.142;2022-12-07T02:44:17;99770.16;;;2.45;100.00
50444;BME280;36370;52.216;21.142;2022-12-07T02:48:21;99771.72;;;2.27;100.00
50444;BME280;36370;52.216;21.142;2022-12-07T02:52:24;99764.44;;;2.37;100.00
50444;BME280;36370;52.216;21.142;2022-12-07T03:01:02;99754.41;;;2.28;100.00
50444;BME280;36370;52.216;21.142;2022-12-07T03:09:33;99751.47;;;2.37;100.00
50444;BME280;36370;52.216;21.142;2022-12-07T03:13:48;99749.06;;;2.32;100.00
50444;BME280;36370;52.216;21.142;2022-12-07T03:17:52;99747.53;;;2.27;100.00
50444;BME280;36370;52.216;21.142;2022-12-07T03:22:02;99749.50;;;2.20;100.00
50444;BME280;36370;52.216;21.142;2022-12-07T03:26:08;99745.41;;;2.14;100.00
50444;BME280;36370;52.216;21.142;2022-12-07T03:30:17;99752.50;;;2.09;100.00
50444;BME280;36370;52.216;21.142;2022-12-07T03:39:07;99743.22;;;2.04;100.00
50444;BME280;36370;52.216;21.142;2022-12-07T03:43:13;99735.94;;;2.13;100.00
50444;BME280;36370;52.216;21.142;2022-12-07T03:47:27;99735.50;;;2.02;100.00
50444;BME280;36370;52.216;21.142;2022-12-07T03:51:40;99735.94;;;2.13;100.00
50444;BME280;36370;52.216;21.142;2022-12-07T03:55:46;99734.41;;;2.08;100.00
50444;BME280;36370;52.216;21.142;2022-12-07T03:59:49;99730.75;;;1.90;100.00
50444;BME280;36370;52.216;21.142;2022-12-07T04:03:51;99733.91;;;1.74;100.00
50444;BME280;36370;52.216;21.142;2022-12-07T04:07:53;99736.75;;;1.67;100.00
50444;BME280;36370;52.216;21.142;2022-12-07T04:11:55;99738.53;;;1.65;100.00
50444;BME280;36370;52.216;21.142;2022-12-07T04:15:57;99738.31;;;1.71;100.00
50444;BME280;36370;52.216;21.142;2022-12-07T04:19:59;99739.44;;;1.64;100.00
50444;BME280;36370;52.216;21.142;2022-12-07T04:24:02;99738.47;;;1.66;100.00
50444;BME280;36370;52.216;21.142;2022-12-07T04:28:04;99733.72;;;1.54;100.00
50444;BME280;36370;52.216;21.142;2022-12-07T04:32:06;99735.53;;;1.52;100.00
50444;BME280;36370;52.216;21.142;2022-12-07T04:36:08;99738.78;;;1.57;100.00
50444;BME280;36370;52.216;21.142;2022-12-07T04:40:10;99740.09;;;1.45;100.00
50444;BME280;36370;52.216;21.142;2022-12-07T04:44:13;99734.97;;;1.43;100.00
50444;BME280;36370;52.216;21.142;2022-12-07T04:48:16;99739.47;;;1.38;100.00
50444;BME280;36370;52.216;21.142;2022-12-07T04:52:18;99740.59;;;1.55;100.00
50444;BME280;36370;52.216;21.142;2022-12-07T04:56:20;99729.31;;;1.57;100.00
50444;BME280;36370;52.216;21.142;2022-12-07T05:00:22;99721.44;;;1.60;100.00
50444;BME280;36370;52.216;21.142;2022-12-07T05:04:24;99721.75;;;1.51;100.00
50444;BME280;36370;52.216;21.142;2022-12-07T05:08:26;99716.41;;;1.56;100.00
50444;BME280;36370;52.216;21.142;2022-12-07T05:12:28;99709.75;;;1.49;100.00
50444;BME280;36370;52.216;21.142;2022-12-07T05:16:30;99707.88;;;1.52;100.00
50444;BME280;36370;52.216;21.142;2022-12-07T05:20:32;99709.69;;;1.50;100.00
50444;BME280;36370;52.216;21.142;2022-12-07T05:24:41;99704.84;;;1.41;100.00
50444;BME280;36370;52.216;21.142;2022-12-07T05:28:43;99699.13;;;1.56;100.00
50444;BME280;36370;52.216;21.142;2022-12-07T05:32:45;99702.59;;;1.55;100.00
50444;BME280;36370;52.216;21.142;2022-12-07T05:36:47;99695.00;;;1.51;100.00
50444;BME280;36370;52.216;21.142;2022-12-07T05:40:49;99694.63;;;1.36;100.00
50444;BME280;36370;52.216;21.142;2022-12-07T05:44:51;99697.69;;;1.22;100.00
50444;BME280;36370;52.216;21.142;2022-12-07T05:48:53;99698.66;;;1.20;100.00
50444;BME280;36370;52.216;21.142;2022-12-07T05:52:55;99700.22;;;1.24;100.00
50444;BME280;36370;52.216;21.142;2022-12-07T05:56:57;99709.13;;;1.17;100.00
50444;BME280;36370;52.216;21.142;2022-12-07T06:00:59;99707.66;;;1.08;100.00
50444;BME280;36370;52.216;21.142;2022-12-07T06:05:01;99698.72;;;1.18;100.00
50444;BME280;36370;52.216;21.142;2022-12-07T06:09:03;99696.38;;;1.11;100.00
50444;BME280;36370;52.216;21.142;2022-12-07T06:13:05;99699.72;;;0.87;100.00
50444;BME280;36370;52.216;21.142;2022-12-07T06:17:07;99703.59;;;1.01;100.00
50444;BME280;36370;52.216;21.142;2022-12-07T06:21:09;99702.50;;;1.08;100.00
50444;BME280;36370;52.216;21.142;2022-12-07T06:25:11;99698.50;;;0.98;100.00
50444;BME280;36370;52.216;21.142;2022-12-07T06:29:13;99701.34;;;0.90;100.00
50444;BME280;36370;52.216;21.142;2022-12-07T06:33:15;99695.63;;;0.80;100.00
50444;BME280;36370;52.216;21.142;2022-12-07T06:37:17;99701.63;;;0.81;100.00
50444;BME280;36370;52.216;21.142;2022-12-07T06:41:19;99703.88;;;0.65;100.00
50444;BME280;36370;52.216;21.142;2022-12-07T06:45:21;99704.94;;;0.86;100.00
50444;BME280;36370;52.216;21.142;2022-12-07T06:49:23;99704.03;;;0.87;100.00
50444;BME280;36370;52.216;21.142;2022-12-07T06:53:25;99688.41;;;0.90;100.00
50444;BME280;36370;52.216;21.142;2022-12-07T06:57:27;99692.69;;;0.91;100.00
50444;BME280;36370;52.216;21.142;2022-12-07T07:01:29;99689.38;;;0.87;100.00
50444;BME280;36370;52.216;21.142;2022-12-07T07:05:31;99690.94;;;0.92;100.00
50444;BME280;36370;52.216;21.142;2022-12-07T07:09:33;99703.28;;;0.83;100.00
50444;BME280;36370;52.216;21.142;2022-12-07T07:13:35;99703.09;;;0.89;100.00
50444;BME280;36370;52.216;21.142;2022-12-07T07:17:38;99699.81;;;0.84;100.00
50444;BME280;36370;52.216;21.142;2022-12-07T07:21:39;99697.63;;;0.72;100.00
50444;BME280;36370;52.216;21.142;2022-12-07T07:25:41;99699.19;;;0.76;100.00
50444;BME280;36370;52.216;21.142;2022-12-07T07:29:43;99695.84;;;0.74;100.00
50444;BME280;36370;52.216;21.142;2022-12-07T07:33:46;99701.78;;;0.76;100.00
50444;BME280;36370;52.216;21.142;2022-12-07T07:37:48;99703.50;;;0.77;100.00
50444;BME280;36370;52.216;21.142;2022-12-07T07:41:50;99705.34;;;0.74;100.00
50444;BME280;36370;52.216;21.142;2022-12-07T07:45:59;99710.38;;;0.78;100.00
50444;BME280;36370;52.216;21.142;2022-12-07T07:50:01;99711.53;;;0.68;100.00
50444;BME280;36370;52.216;21.142;2022-12-07T07:54:04;99712.59;;;0.62;100.00
50444;BME280;36370;52.216;21.142;2022-12-07T07:58:06;99719.63;;;0.57;100.00
50444;BME280;36370;52.216;21.142;2022-12-07T08:02:19;99725.34;;;0.68;100.00
50444;BME280;36370;52.216;21.142;2022-12-07T08:06:22;99723.28;;;0.78;100.00
50444;BME280;36370;52.216;21.142;2022-12-07T08:10:30;99733.53;;;0.81;100.00
50444;BME280;36370;52.216;21.142;2022-12-07T08:14:37;99726.13;;;0.97;100.00
50444;BME280;36370;52.216;21.142;2022-12-07T08:18:40;99723.16;;;1.10;100.00
50444;BME280;36370;52.216;21.142;2022-12-07T08:22:42;99724.53;;;1.20;100.00
50444;BME280;36370;52.216;21.142;2022-12-07T08:26:44;99728.34;;;1.35;100.00
50444;BME280;36370;52.216;21.142;2022-12-07T08:30:45;99725.81;;;1.33;100.00
50444;BME280;36370;52.216;21.142;2022-12-07T08:34:47;99729.00;;;1.41;100.00
50444;BME280;36370;52.216;21.142;2022-12-07T08:38:50;99735.53;;;1.52;100.00
50444;BME280;36370;52.216;21.142;2022-12-07T08:43:12;99736.41;;;1.51;100.00
50444;BME280;36370;52.216;21.142;2022-12-07T08:47:14;99732.25;;;1.47;100.00
50444;BME280;36370;52.216;21.142;2022-12-07T08:51:16;99731.31;;;1.49;100.00
50444;BME280;36370;52.216;21.142;2022-12-07T08:55:18;99729.25;;;1.59;100.00
50444;BME280;36370;52.216;21.142;2022-12-07T08:59:20;99729.34;;;1.56;100.00
50444;BME280;36370;52.216;21.142;2022-12-07T09:03:22;99727.91;;;1.72;100.00
50444;BME280;36370;52.216;21.142;2022-12-07T09:07:25;99731.16;;;1.79;100.00
50444;BME280;36370;52.216;21.142;2022-12-07T09:11:27;99727.41;;;1.86;100.00
50444;BME280;36370;52.216;21.142;2022-12-07T09:15:30;99728.91;;;1.93;100.00
50444;BME280;36370;52.216;21.142;2022-12-07T09:19:32;99724.38;;;1.98;100.00
50444;BME280;36370;52.216;21.142;2022-12-07T09:23:35;99701.63;;;2.07;100.00
50444;BME280;36370;52.216;21.142;2022-12-07T09:27:37;99690.81;;;2.19;100.00
50444;BME280;36370;52.216;21.142;2022-12-07T09:31:39;99694.78;;;2.28;100.00
50444;BME280;36370;52.216;21.142;2022-12-07T09:35:48;99686.06;;;2.30;100.00
50444;BME280;36370;52.216;21.142;2022-12-07T09:39:50;99681.41;;;2.39;100.00
50444;BME280;36370;52.216;21.142;2022-12-07T09:44:02;99664.50;;;2.28;100.00
50444;BME280;36370;52.216;21.142;2022-12-07T09:48:08;99666.31;;;2.26;100.00
50444;BME280;36370;52.216;21.142;2022-12-07T09:52:24;99664.84;;;2.43;100.00
50444;BME280;36370;52.216;21.142;2022-12-07T09:56:30;99655.19;;;2.46;100.00
50444;BME280;36370;52.216;21.142;2022-12-07T10:00:32;99658.72;;;2.44;100.00
50444;BME280;36370;52.216;21.142;2022-12-07T10:04:34;99659.81;;;2.60;100.00
50444;BME280;36370;52.216;21.142;2022-12-07T10:08:39;99664.28;;;2.57;100.00
50444;BME280;36370;52.216;21.142;2022-12-07T10:13:07;99651.09;;;2.63;100.00
50444;BME280;36370;52.216;21.142;2022-12-07T10:17:30;99625.75;;;2.47;100.00
50444;BME280;36370;52.216;21.142;2022-12-07T10:21:33;99620.56;;;2.47;100.00
50444;BME280;36370;52.216;21.142;2022-12-07T10:25:36;99620.47;;;2.71;100.00
50444;BME280;36370;52.216;21.142;2022-12-07T10:29:47;99620.34;;;2.74;100.00
50444;BME280;36370;52.216;21.142;2022-12-07T10:33:56;99618.84;;;2.68;100.00
50444;BME280;36370;52.216;21.142;2022-12-07T10:38:00;99619.22;;;2.59;100.00
50444;BME280;36370;52.216;21.142;2022-12-07T10:42:03;99619.09;;;2.62;100.00
50444;BME280;36370;52.216;21.142;2022-12-07T10:51:23;99623.72;;;2.76;100.00
50444;BME280;36370;52.216;21.142;2022-12-07T10:55:36;99625.91;;;2.65;100.00
50444;BME280;36370;52.216;21.142;2022-12-07T11:00:08;99622.13;;;2.74;100.00
50444;BME280;36370;52.216;21.142;2022-12-07T11:04:20;99620.09;;;2.60;100.00
50444;BME280;36370;52.216;21.142;2022-12-07T11:12:50;99616.66;;;2.80;100.00
50444;BME280;36370;52.216;21.142;2022-12-07T11:17:02;99608.72;;;2.62;100.00
50444;BME280;36370;52.216;21.142;2022-12-07T11:21:24;99613.00;;;2.63;100.00
50444;BME280;36370;52.216;21.142;2022-12-07T11:26:06;99608.19;;;2.54;100.00
50444;BME280;36370;52.216;21.142;2022-12-07T11:30:13;99608.22;;;2.75;100.00
50444;BME280;36370;52.216;21.142;2022-12-07T11:34:28;99614.34;;;2.94;100.00
50444;BME280;36370;52.216;21.142;2022-12-07T11:38:41;99608.63;;;2.86;100.00
50444;BME280;36370;52.216;21.142;2022-12-07T11:42:56;99611.94;;;2.90;100.00
50444;BME280;36370;52.216;21.142;2022-12-07T11:47:14;99601.16;;;2.78;100.00
50444;BME280;36370;52.216;21.142;2022-12-07T11:51:20;99596.38;;;2.69;100.00
50444;BME280;36370;52.216;21.142;2022-12-07T11:55:44;99598.22;;;2.65;100.00
50444;BME280;36370;52.216;21.142;2022-12-07T11:59:57;99593.69;;;2.91;100.00
50444;BME280;36370;52.216;21.142;2022-12-07T12:08:16;99594.59;;;2.90;100.00
50444;BME280;36370;52.216;21.142;2022-12-07T12:21:41;99576.63;;;2.85;100.00
50444;BME280;36370;52.216;21.142;2022-12-07T12:25:50;99573.41;;;2.80;100.00
50444;BME280;36370;52.216;21.142;2022-12-07T12:29:59;99578.16;;;2.48;100.00
50444;BME280;36370;52.216;21.142;2022-12-07T12:34:04;99589.41;;;2.49;100.00
50444;BME280;36370;52.216;21.142;2022-12-07T12:38:29;99595.25;;;2.32;100.00
50444;BME280;36370;52.216;21.142;2022-12-07T12:42:44;99598.84;;;2.50;100.00
50444;BME280;36370;52.216;21.142;2022-12-07T13:03:55;99600.50;;;2.30;100.00
50444;BME280;36370;52.216;21.142;2022-12-07T13:08:20;99590.59;;;2.40;100.00
50444;BME280;36370;52.216;21.142;2022-12-07T13:12:25;99588.44;;;2.29;100.00
50444;BME280;36370;52.216;21.142;2022-12-07T13:16:38;99583.66;;;2.41;100.00
50444;BME280;36370;52.216;21.142;2022-12-07T13:25:08;99583.38;;;2.26;100.00
50444;BME280;36370;52.216;21.142;2022-12-07T13:29:19;99577.78;;;2.15;100.00
50444;BME280;36370;52.216;21.142;2022-12-07T13:33:27;99572.25;;;2.24;100.00
50444;BME280;36370;52.216;21.142;2022-12-07T13:37:31;99574.38;;;2.14;100.00
50444;BME280;36370;52.216;21.142;2022-12-07T13:41:42;99575.53;;;2.28;100.00
50444;BME280;36370;52.216;21.142;2022-12-07T13:45:44;99576.09;;;2.14;100.00
50444;BME280;36370;52.216;21.142;2022-12-07T13:49:54;99575.97;;;2.17;100.00
50444;BME280;36370;52.216;21.142;2022-12-07T13:54:01;99584.59;;;2.18;100.00
50444;BME280;36370;52.216;21.142;2022-12-07T13:58:10;99583.63;;;2.20;100.00
50444;BME280;36370;52.216;21.142;2022-12-07T14:02:26;99588.22;;;2.13;100.00
50444;BME280;36370;52.216;21.142;2022-12-07T14:06:35;99592.31;;;2.19;100.00
50444;BME280;36370;52.216;21.142;2022-12-07T14:10:38;99590.22;;;2.07;100.00
50444;BME280;36370;52.216;21.142;2022-12-07T14:14:47;99598.41;;;1.96;100.00
50444;BME280;36370;52.216;21.142;2022-12-07T14:18:49;99597.34;;;2.00;100.00
50444;BME280;36370;52.216;21.142;2022-12-07T14:22:55;99603.19;;;1.83;100.00
50444;BME280;36370;52.216;21.142;2022-12-07T14:26:57;99608.25;;;1.86;100.00
50444;BME280;36370;52.216;21.142;2022-12-07T14:31:00;99604.50;;;1.71;100.00
50444;BME280;36370;52.216;21.142;2022-12-07T14:35:10;99599.28;;;1.73;100.00
50444;BME280;36370;52.216;21.142;2022-12-07T14:39:13;99594.25;;;1.68;100.00
50444;BME280;36370;52.216;21.142;2022-12-07T14:43:16;99594.53;;;1.60;100.00
50444;BME280;36370;52.216;21.142;2022-12-07T14:47:18;99592.00;;;1.59;100.00
50444;BME280;36370;52.216;21.142;2022-12-07T14:51:40;99595.00;;;1.48;100.00
50444;BME280;36370;52.216;21.142;2022-12-07T14:56:03;99597.81;;;1.42;100.00
50444;BME280;36370;52.216;21.142;2022-12-07T15:00:09;99606.75;;;1.33;100.00
50444;BME280;36370;52.216;21.142;2022-12-07T15:04:14;99607.88;;;1.26;100.00
50444;BME280;36370;52.216;21.142;2022-12-07T15:08:17;99608.19;;;1.17;100.00
50444;BME280;36370;52.216;21.142;2022-12-07T15:12:19;99601.78;;;1.27;100.00
50444;BME280;36370;52.216;21.142;2022-12-07T15:16:21;99601.59;;;1.08;100.00
50444;BME280;36370;52.216;21.142;2022-12-07T15:20:23;99605.16;;;1.04;100.00
50444;BME280;36370;52.216;21.142;2022-12-07T15:24:26;99606.88;;;1.05;100.00
50444;BME280;36370;52.216;21.142;2022-12-07T15:28:28;99611.69;;;0.91;100.00
50444;BME280;36370;52.216;21.142;2022-12-07T15:32:30;99605.22;;;1.02;100.00
50444;BME280;36370;52.216;21.142;2022-12-07T15:36:33;99606.13;;;1.01;100.00
50444;BME280;36370;52.216;21.142;2022-12-07T15:40:35;99601.44;;;1.13;100.00
50444;BME280;36370;52.216;21.142;2022-12-07T15:44:37;99604.00;;;1.13;100.00
50444;BME280;36370;52.216;21.142;2022-12-07T15:48:58;99602.94;;;0.93;100.00
50444;BME280;36370;52.216;21.142;2022-12-07T15:53:00;99604.38;;;1.02;100.00
50444;BME280;36370;52.216;21.142;2022-12-07T15:57:02;99608.97;;;1.19;100.00
50444;BME280;36370;52.216;21.142;2022-12-07T16:01:15;99609.69;;;1.22;100.00
50444;BME280;36370;52.216;21.142;2022-12-07T16:05:17;99611.63;;;1.17;100.00
50444;BME280;36370;52.216;21.142;2022-12-07T16:09:19;99611.63;;;1.17;100.00
50444;BME280;36370;52.216;21.142;2022-12-07T16:13:21;99597.53;;;1.26;100.00
50444;BME280;36370;52.216;21.142;2022-12-07T16:17:23;99604.47;;;1.24;100.00
50444;BME280;36370;52.216;21.142;2022-12-07T16:21:25;99589.47;;;1.34;100.00
50444;BME280;36370;52.216;21.142;2022-12-07T16:25:26;99592.75;;;1.39;100.00
50444;BME280;36370;52.216;21.142;2022-12-07T16:29:29;99599.41;;;1.46;100.00
50444;BME280;36370;52.216;21.142;2022-12-07T16:33:30;99603.88;;;1.41;100.00
50444;BME280;36370;52.216;21.142;2022-12-07T16:37:32;99600.34;;;1.43;100.00
50444;BME280;36370;52.216;21.142;2022-12-07T16:41:34;99597.31;;;1.56;100.00
50444;BME280;36370;52.216;21.142;2022-12-07T16:45:36;99587.50;;;1.40;100.00
50444;BME280;36370;52.216;21.142;2022-12-07T16:49:38;99594.94;;;1.50;100.00
50444;BME280;36370;52.216;21.142;2022-12-07T16:53:41;99589.25;;;1.40;100.00
50444;BME280;36370;52.216;21.142;2022-12-07T16:57:43;99586.34;;;1.49;100.00
50444;BME280;36370;52.216;21.142;2022-12-07T17:01:45;99578.47;;;1.51;100.00
50444;BME280;36370;52.216;21.142;2022-12-07T17:05:47;99569.78;;;1.53;100.00
50444;BME280;36370;52.216;21.142;2022-12-07T17:09:52;99565.47;;;1.52;100.00
50444;BME280;36370;52.216;21.142;2022-12-07T17:13:54;99572.13;;;1.36;100.00
50444;BME280;36370;52.216;21.142;2022-12-07T17:18:14;99565.38;;;1.55;100.00
50444;BME280;36370;52.216;21.142;2022-12-07T17:22:16;99563.34;;;1.64;100.00
50444;BME280;36370;52.216;21.142;2022-12-07T17:26:22;99559.66;;;1.69;100.00
50444;BME280;36370;52.216;21.142;2022-12-07T17:30:23;99549.47;;;1.65;100.00
50444;BME280;36370;52.216;21.142;2022-12-07T17:34:25;99557.09;;;1.69;100.00
50444;BME280;36370;52.216;21.142;2022-12-07T17:38:28;99551.34;;;1.61;100.00
50444;BME280;36370;52.216;21.142;2022-12-07T17:42:30;99554.66;;;1.65;100.00
50444;BME280;36370;52.216;21.142;2022-12-07T17:46:38;99552.69;;;1.49;100.00
50444;BME280;36370;52.216;21.142;2022-12-07T17:50:40;99554.72;;;1.63;100.00
50444;BME280;36370;52.216;21.142;2022-12-07T17:55:01;99558.41;;;1.57;100.00
50444;BME280;36370;52.216;21.142;2022-12-07T17:59:04;99549.44;;;1.66;100.00
50444;BME280;36370;52.216;21.142;2022-12-07T18:03:07;99546.66;;;1.71;100.00
50444;BME280;36370;52.216;21.142;2022-12-07T18:07:10;99545.81;;;1.48;100.00
50444;BME280;36370;52.216;21.142;2022-12-07T18:11:12;99542.75;;;1.60;100.00
50444;BME280;36370;52.216;21.142;2022-12-07T18:15:14;99542.88;;;1.57;100.00
50444;BME280;36370;52.216;21.142;2022-12-07T18:19:16;99546.94;;;1.63;100.00
50444;BME280;36370;52.216;21.142;2022-12-07T18:23:18;99550.47;;;1.62;100.00
50444;BME280;36370;52.216;21.142;2022-12-07T18:27:21;99547.66;;;1.68;100.00
50444;BME280;36370;52.216;21.142;2022-12-07T18:31:23;99554.50;;;1.69;100.00
50444;BME280;36370;52.216;21.142;2022-12-07T18:35:25;99547.66;;;1.68;100.00
50444;BME280;36370;52.216;21.142;2022-12-07T18:39:27;99545.84;;;1.70;100.00
50444;BME280;36370;52.216;21.142;2022-12-07T18:43:34;99534.69;;;1.68;100.00
50444;BME280;36370;52.216;21.142;2022-12-07T18:47:37;99546.44;;;1.77;100.00
50444;BME280;36370;52.216;21.142;2022-12-07T18:51:39;99544.28;;;1.88;100.00
50444;BME280;36370;52.216;21.142;2022-12-07T18:55:41;99561.03;;;2.02;100.00
50444;BME280;36370;52.216;21.142;2022-12-07T18:59:43;99566.13;;;1.81;100.00
50444;BME280;36370;52.216;21.142;2022-12-07T19:03:49;99564.47;;;1.56;100.00
50444;BME280;36370;52.216;21.142;2022-12-07T19:07:51;99566.19;;;1.34;100.00
50444;BME280;36370;52.216;21.142;2022-12-07T19:11:53;99568.84;;;1.32;100.00
50444;BME280;36370;52.216;21.142;2022-12-07T19:15:57;99567.81;;;1.36;100.00
50444;BME280;36370;52.216;21.142;2022-12-07T19:19:59;99583.88;;;1.46;100.00
50444;BME280;36370;52.216;21.142;2022-12-07T19:24:05;99581.22;;;1.48;100.00
50444;BME280;36370;52.216;21.142;2022-12-07T19:28:07;99589.69;;;1.51;100.00
50444;BME280;36370;52.216;21.142;2022-12-07T19:32:09;99577.97;;;1.65;100.00
50444;BME280;36370;52.216;21.142;2022-12-07T19:36:12;99581.13;;;1.73;100.00
50444;BME280;36370;52.216;21.142;2022-12-07T19:40:13;99592.16;;;1.78;100.00
50444;BME280;36370;52.216;21.142;2022-12-07T19:44:18;99590.53;;;1.52;100.00
50444;BME280;36370;52.216;21.142;2022-12-07T19:48:20;99585.31;;;1.53;100.00
50444;BME280;36370;52.216;21.142;2022-12-07T19:52:22;99594.81;;;1.53;100.00
50444;BME280;36370;52.216;21.142;2022-12-07T19:56:28;99598.53;;;1.46;100.00
50444;BME280;36370;52.216;21.142;2022-12-07T20:00:30;99603.75;;;1.44;100.00
50444;BME280;36370;52.216;21.142;2022-12-07T20:04:32;99608.44;;;1.34;100.00
50444;BME280;36370;52.216;21.142;2022-12-07T20:08:36;99622.63;;;1.48;100.00
50444;BME280;36370;52.216;21.142;2022-12-07T20:12:38;99627.81;;;1.48;100.00
50444;BME280;36370;52.216;21.142;2022-12-07T20:16:58;99631.53;;;1.15;100.00
50444;BME280;36370;52.216;21.142;2022-12-07T20:21:00;99630.09;;;1.32;100.00
50444;BME280;36370;52.216;21.142;2022-12-07T20:25:02;99641.31;;;1.32;100.00
50444;BME280;36370;52.216;21.142;2022-12-07T20:29:10;99647.78;;;1.19;100.00
50444;BME280;36370;52.216;21.142;2022-12-07T20:33:19;99661.66;;;1.16;100.00
50444;BME280;36370;52.216;21.142;2022-12-07T20:37:21;99660.25;;;1.07;100.00
50444;BME280;36370;52.216;21.142;2022-12-07T20:41:23;99668.13;;;1.04;100.00
50444;BME280;36370;52.216;21.142;2022-12-07T20:45:47;99670.63;;;1.07;100.00
50444;BME280;36370;52.216;21.142;2022-12-07T20:49:50;99674.16;;;0.78;100.00
50444;BME280;36370;52.216;21.142;2022-12-07T20:53:52;99671.97;;;0.66;100.00
50444;BME280;36370;52.216;21.142;2022-12-07T20:57:54;99687.78;;;0.83;100.00
50444;BME280;36370;52.216;21.142;2022-12-07T21:01:56;99689.22;;;0.65;100.00
50444;BME280;36370;52.216;21.142;2022-12-07T21:06:00;99676.00;;;0.46;100.00
50444;BME280;36370;52.216;21.142;2022-12-07T21:10:03;99685.41;;;0.49;100.00
50444;BME280;36370;52.216;21.142;2022-12-07T21:14:06;99691.25;;;0.56;100.00
50444;BME280;36370;52.216;21.142;2022-12-07T21:18:07;99701.06;;;0.73;100.00
50444;BME280;36370;52.216;21.142;2022-12-07T21:22:09;99698.81;;;0.62;100.00
50444;BME280;36370;52.216;21.142;2022-12-07T21:26:13;99698.41;;;0.47;100.00
50444;BME280;36370;52.216;21.142;2022-12-07T21:30:15;99695.16;;;0.41;100.00
50444;BME280;36370;52.216;21.142;2022-12-07T21:34:17;99705.59;;;0.38;100.00
50444;BME280;36370;52.216;21.142;2022-12-07T21:38:19;99709.97;;;0.34;100.00
50444;BME280;36370;52.216;21.142;2022-12-07T21:42:21;99709.81;;;0.40;100.00
50444;BME280;36370;52.216;21.142;2022-12-07T21:46:24;99703.88;;;0.37;100.00
50444;BME280;36370;52.216;21.142;2022-12-07T21:50:34;99708.41;;;0.30;100.00
50444;BME280;36370;52.216;21.142;2022-12-07T21:54:39;99712.47;;;0.37;100.00
50444;BME280;36370;52.216;21.142;2022-12-07T21:58:43;99710.81;;;0.36;100.00
50444;BME280;36370;52.216;21.142;2022-12-07T22:02:45;99714.78;;;0.46;100.00
50444;BME280;36370;52.216;21.142;2022-12-07T22:06:48;99701.91;;;0.45;100.00
50444;BME280;36370;52.216;21.142;2022-12-07T22:10:50;99707.59;;;0.28;100.00
50444;BME280;36370;52.216;21.142;2022-12-07T22:14:52;99706.06;;;0.22;100.00
50444;BME280;36370;52.216;21.142;2022-12-07T22:19:10;99702.69;;;0.18;100.00
50444;BME280;36370;52.216;21.142;2022-12-07T22:23:12;99712.38;;;0.12;100.00
50444;BME280;36370;52.216;21.142;2022-12-07T22:27:15;99705.00;;;0.28;100.00